Edzard Schulte — 2CVX9 — position and weather

sailwx.info

Track history (hours):
 
Tides and Currents Weather Stations Pressure Air Temp Water Temp Dewpoint Dewpoint Depression Visibility Wind Speed Wind Dir Waves Ship Positions

Edzard Schulte

Last reported at 2016-Aug-24 17:33 UTC. Time now 2016-Aug-28 20:42 UTC.
Position N 46°09' W 072°57'.

Length 145 m; draft 6.5 m.

Type: Tanker. MMSI: 235076245.

Date/timePositionNaut miles runAvg speedWind from/ knotsBaromVisibWave heightAir tempDewpointWater temp
2016-Aug-24 17:33N 46°09' W 072°57'1212.2
2016-Aug-24 16:33N 46°01' W 073°10'1414.0
2016-Aug-24 15:33N 45°48' W 073°19'1312.6
2016-Aug-24 14:33N 45°38' W 073°29'0 0.1
2016-Aug-24 13:29N 45°38' W 073°29'0 0.0
2016-Aug-24 12:29N 45°38' W 073°29'0 0.0
2016-Aug-24 11:23N 45°38' W 073°29'0 0.0
2016-Aug-24 10:29N 45°38' W 073°29'0 0.0
2016-Aug-24 08:32N 45°38' W 073°29'0 0.0
2016-Aug-24 07:29N 45°38' W 073°29'0 0.0
2016-Aug-24 06:26N 45°38' W 073°29'10 3.2
2016-Aug-24 03:17N 45°28' W 073°30'3 4.0
2016-Aug-24 02:33N 45°25' W 073°31'2 2.2
2016-Aug-24 01:29N 45°24' W 073°34'3 3.5
2016-Aug-24 00:33N 45°24' W 073°39'8 7.9
2016-Aug-23 23:33N 45°22' W 073°50'5 5.3
2016-Aug-23 22:34N 45°19' W 073°55'2 1.7
2016-Aug-23 21:33N 45°17' W 073°56'122 8.5
2016-Aug-23 07:14N 44°09' W 076°19'5 6.8
2016-Aug-23 06:34N 44°06' W 076°24'13314.1
2016-Aug-22 21:09N 43°14' W 079°13'  
2016-Aug-18 12:25N 43°12' W 079°13'1 0.7
2016-Aug-18 11:31N 43°13' W 079°13'132 7.3
2016-Aug-17 17:32N 44°05' W 076°25'127 7.4
2016-Aug-17 00:19N 45°17' W 073°57'2 2.5
2016-Aug-16 23:33N 45°18' W 073°55'2 1.7
2016-Aug-16 22:33N 45°20' W 073°54'9 8.7
2016-Aug-16 21:33N 45°24' W 073°44'9 3.6
2016-Aug-16 19:11N 45°25' W 073°32'7 2.7
2016-Aug-16 16:28N 45°32' W 073°32'2 1.9
2016-Aug-16 15:25N 45°34' W 073°31'0 0.0
2016-Aug-16 14:31N 45°34' W 073°31'0 0.0
2016-Aug-16 13:25N 45°34' W 073°31'0 0.0
2016-Aug-16 12:31N 45°34' W 073°31'0 0.0
2016-Aug-16 11:31N 45°34' W 073°31'3 3.0
2016-Aug-16 10:33N 45°37' W 073°30'9 8.8
2016-Aug-16 09:33N 45°44' W 073°25'1010.4
2016-Aug-16 08:33N 45°52' W 073°15'1010.4
2016-Aug-16 07:33N 46°02' W 073°10'  
Track history (hours):
 
Tides and Currents Weather Stations Pressure Air Temp Water Temp Dewpoint Dewpoint Depression Visibility Wind Speed Wind Dir Waves Ship Positions

Edzard Schulte

Last reported at 2016-Aug-24 17:33 UTC. Time now 2016-Aug-28 20:42 UTC.
Position N 46°09' W 072°57'.

Length 145 m; draft 6.5 m.

Type: Tanker. MMSI: 235076245.

Date/timePositionNaut miles runAvg speedWind from/ knotsBaromVisibWave heightAir tempDewpointWater temp
2016-Aug-24 17:33N 46°09' W 072°57'1212.2
2016-Aug-24 16:33N 46°01' W 073°10'1414.0
2016-Aug-24 15:33N 45°48' W 073°19'1312.6
2016-Aug-24 14:33N 45°38' W 073°29'0 0.1
2016-Aug-24 13:29N 45°38' W 073°29'0 0.0
2016-Aug-24 12:29N 45°38' W 073°29'0 0.0
2016-Aug-24 11:23N 45°38' W 073°29'0 0.0
2016-Aug-24 10:29N 45°38' W 073°29'0 0.0
2016-Aug-24 08:32N 45°38' W 073°29'0 0.0
2016-Aug-24 07:29N 45°38' W 073°29'0 0.0
2016-Aug-24 06:26N 45°38' W 073°29'10 3.2
2016-Aug-24 03:17N 45°28' W 073°30'3 4.0
2016-Aug-24 02:33N 45°25' W 073°31'2 2.2
2016-Aug-24 01:29N 45°24' W 073°34'3 3.5
2016-Aug-24 00:33N 45°24' W 073°39'8 7.9
2016-Aug-23 23:33N 45°22' W 073°50'5 5.3
2016-Aug-23 22:34N 45°19' W 073°55'2 1.7
2016-Aug-23 21:33N 45°17' W 073°56'122 8.5
2016-Aug-23 07:14N 44°09' W 076°19'5 6.8
2016-Aug-23 06:34N 44°06' W 076°24'13314.1
2016-Aug-22 21:09N 43°14' W 079°13'  
2016-Aug-18 12:25N 43°12' W 079°13'1 0.7
2016-Aug-18 11:31N 43°13' W 079°13'132 7.3
2016-Aug-17 17:32N 44°05' W 076°25'127 7.4
2016-Aug-17 00:19N 45°17' W 073°57'2 2.5
2016-Aug-16 23:33N 45°18' W 073°55'2 1.7
2016-Aug-16 22:33N 45°20' W 073°54'9 8.7
2016-Aug-16 21:33N 45°24' W 073°44'9 3.6
2016-Aug-16 19:11N 45°25' W 073°32'7 2.7
2016-Aug-16 16:28N 45°32' W 073°32'2 1.9
2016-Aug-16 15:25N 45°34' W 073°31'0 0.0
2016-Aug-16 14:31N 45°34' W 073°31'0 0.0
2016-Aug-16 13:25N 45°34' W 073°31'0 0.0
2016-Aug-16 12:31N 45°34' W 073°31'0 0.0
2016-Aug-16 11:31N 45°34' W 073°31'3 3.0
2016-Aug-16 10:33N 45°37' W 073°30'9 8.8
2016-Aug-16 09:33N 45°44' W 073°25'1010.4
2016-Aug-16 08:33N 45°52' W 073°15'1010.4
2016-Aug-16 07:33N 46°02' W 073°10'  

Dump ship's entire track history